Shoukeimaruno.3 — JI3587 — position and weather

sailwx.info

Track history (hours):
 
Tides and Currents Weather Stations Pressure Air Temp Water Temp Dewpoint Dewpoint Depression Visibility Wind Speed Wind Dir Waves Ship Positions

Shoukeimaruno.3

Last reported at 2014-Nov-16 15:33 UTC. Time now 2014-Nov-23 16:15 UTC.
Position N 35°16' E 139°46'.

Length 77 m; draft 3.5 m.

Type: Cargo ship. MMSI: 431300325.

Date/timePositionNaut miles runAvg speedWind from/ knotsBaromVisibWave heightAir tempDewpointWater temp
2014-Nov-16 15:33N 35°16' E 139°46'1110.6
2014-Nov-16 14:33N 35°24' E 139°38'0 0.4
2014-Nov-16 13:32N 35°24' E 139°37'0 0.0
2014-Nov-16 12:32N 35°24' E 139°37'0 0.0
2014-Nov-16 11:32N 35°24' E 139°37'0 0.0
2014-Nov-16 10:32N 35°24' E 139°37'0 0.0
2014-Nov-16 09:32N 35°24' E 139°37'0 0.0
2014-Nov-16 08:32N 35°24' E 139°37'0 0.0
2014-Nov-16 07:33N 35°24' E 139°37'2 1.7
2014-Nov-16 06:33N 35°24' E 139°39'1312.5
2014-Nov-16 05:33N 35°13' E 139°47'  
2014-Nov-12 01:17N 35°08' E 139°42'811.3
2014-Nov-12 00:34N 35°16' E 139°46'9 8.7
2014-Nov-11 23:34N 35°23' E 139°40'1 0.6
2014-Nov-11 22:34N 35°24' E 139°40'0 0.1
2014-Nov-11 21:33N 35°24' E 139°40'0 0.0
2014-Nov-11 20:33N 35°24' E 139°40'0 0.0
2014-Nov-11 19:34N 35°24' E 139°40'0 0.0
2014-Nov-11 18:34N 35°24' E 139°40'0 0.0
2014-Nov-11 17:33N 35°24' E 139°40'0 0.0
2014-Nov-11 16:34N 35°24' E 139°40'5 5.4
2014-Nov-11 15:34N 35°19' E 139°43'9 9.2
2014-Nov-11 14:33N 35°10' E 139°46'4 0.2
2014-Nov-10 14:08N 35°08' E 139°42'712.7
2014-Nov-10 13:33N 35°15' E 139°46'1010.6
2014-Nov-10 12:34N 35°24' E 139°40'0 0.0
2014-Nov-10 11:34N 35°24' E 139°40'0 0.0
2014-Nov-10 10:34N 35°24' E 139°40'0 0.0
2014-Nov-10 09:34N 35°24' E 139°40'2 1.8
2014-Nov-10 08:34N 35°25' E 139°42'6 6.2
2014-Nov-10 07:33N 35°31' E 139°45'0 0.0
2014-Nov-10 06:34N 35°31' E 139°45'0 0.0
2014-Nov-10 05:34N 35°31' E 139°45'0 0.0
2014-Nov-10 04:33N 35°31' E 139°45'0 0.0
2014-Nov-10 03:33N 35°31' E 139°45'0 0.0
2014-Nov-10 02:34N 35°31' E 139°45'0 0.0
2014-Nov-10 01:34N 35°31' E 139°45'0 0.0
2014-Nov-10 00:33N 35°31' E 139°45'0 0.0
2014-Nov-09 23:34N 35°31' E 139°45'2 2.0
2014-Nov-09 22:32N 35°29' E 139°47'8 7.8
2014-Nov-09 21:33N 35°22' E 139°45'1111.0
2014-Nov-09 20:34N 35°11' E 139°47'  
Track history (hours):
 
Tides and Currents Weather Stations Pressure Air Temp Water Temp Dewpoint Dewpoint Depression Visibility Wind Speed Wind Dir Waves Ship Positions

Shoukeimaruno.3

Last reported at 2014-Nov-16 15:33 UTC. Time now 2014-Nov-23 16:15 UTC.
Position N 35°16' E 139°46'.

Length 77 m; draft 3.5 m.

Type: Cargo ship. MMSI: 431300325.

Date/timePositionNaut miles runAvg speedWind from/ knotsBaromVisibWave heightAir tempDewpointWater temp
2014-Nov-16 15:33N 35°16' E 139°46'1110.6
2014-Nov-16 14:33N 35°24' E 139°38'0 0.4
2014-Nov-16 13:32N 35°24' E 139°37'0 0.0
2014-Nov-16 12:32N 35°24' E 139°37'0 0.0
2014-Nov-16 11:32N 35°24' E 139°37'0 0.0
2014-Nov-16 10:32N 35°24' E 139°37'0 0.0
2014-Nov-16 09:32N 35°24' E 139°37'0 0.0
2014-Nov-16 08:32N 35°24' E 139°37'0 0.0
2014-Nov-16 07:33N 35°24' E 139°37'2 1.7
2014-Nov-16 06:33N 35°24' E 139°39'1312.5
2014-Nov-16 05:33N 35°13' E 139°47'  
2014-Nov-12 01:17N 35°08' E 139°42'811.3
2014-Nov-12 00:34N 35°16' E 139°46'9 8.7
2014-Nov-11 23:34N 35°23' E 139°40'1 0.6
2014-Nov-11 22:34N 35°24' E 139°40'0 0.1
2014-Nov-11 21:33N 35°24' E 139°40'0 0.0
2014-Nov-11 20:33N 35°24' E 139°40'0 0.0
2014-Nov-11 19:34N 35°24' E 139°40'0 0.0
2014-Nov-11 18:34N 35°24' E 139°40'0 0.0
2014-Nov-11 17:33N 35°24' E 139°40'0 0.0
2014-Nov-11 16:34N 35°24' E 139°40'5 5.4
2014-Nov-11 15:34N 35°19' E 139°43'9 9.2
2014-Nov-11 14:33N 35°10' E 139°46'4 0.2
2014-Nov-10 14:08N 35°08' E 139°42'712.7
2014-Nov-10 13:33N 35°15' E 139°46'1010.6
2014-Nov-10 12:34N 35°24' E 139°40'0 0.0
2014-Nov-10 11:34N 35°24' E 139°40'0 0.0
2014-Nov-10 10:34N 35°24' E 139°40'0 0.0
2014-Nov-10 09:34N 35°24' E 139°40'2 1.8
2014-Nov-10 08:34N 35°25' E 139°42'6 6.2
2014-Nov-10 07:33N 35°31' E 139°45'0 0.0
2014-Nov-10 06:34N 35°31' E 139°45'0 0.0
2014-Nov-10 05:34N 35°31' E 139°45'0 0.0
2014-Nov-10 04:33N 35°31' E 139°45'0 0.0
2014-Nov-10 03:33N 35°31' E 139°45'0 0.0
2014-Nov-10 02:34N 35°31' E 139°45'0 0.0
2014-Nov-10 01:34N 35°31' E 139°45'0 0.0
2014-Nov-10 00:33N 35°31' E 139°45'0 0.0
2014-Nov-09 23:34N 35°31' E 139°45'2 2.0
2014-Nov-09 22:32N 35°29' E 139°47'8 7.8
2014-Nov-09 21:33N 35°22' E 139°45'1111.0
2014-Nov-09 20:34N 35°11' E 139°47'  

Dump ship's entire track history